Time;durP1;ratioP1;P1;durP2;ratioP2;P2;SDS_P1;SDS_P2;PMS_P1;PMS_P2;Temp;Humidity;BMP_temperature;BMP_pressure;BME280_temperature;BME280_humidity;BME280_pressure;Samples;Min_cycle;Max_cycle;Signal;HPM_P1;HPM_P2
2022/12/23 00:00:17;;;;;;;12.15;2.22;;;;;;;4.41;75.60;99307.25;5019154;28;20473;-72
2022/12/23 00:02:44;;;;;;;4.63;2.25;;;;;;;4.41;75.59;99304.69;5018245;28;20420;-72
2022/12/23 00:05:12;;;;;;;8.10;2.05;;;;;;;4.31;75.79;99277.28;5020777;28;20053;-72
2022/12/23 00:07:39;;;;;;;5.25;2.25;;;;;;;4.42;75.56;99301.22;5021550;28;20052;-72
2022/12/23 00:10:09;;;;;;;6.32;2.50;;;;;;;4.41;75.65;99302.09;5015261;28;20053;-72
2022/12/23 00:15:20;;;;;;;4.22;1.73;;;;;;;4.41;75.74;99287.47;5022110;28;20060;-72
2022/12/23 00:17:47;;;;;;;6.13;2.20;;;;;;;4.43;75.80;99284.81;5021275;28;20071;-72
2022/12/23 00:20:15;;;;;;;7.47;1.58;;;;;;;4.44;75.53;99276.19;5015412;28;20072;-72
2022/12/23 00:25:40;;;;;;;7.68;2.08;;;;;;;4.45;75.36;99278.75;5019959;28;20636;-72
2022/12/23 00:28:10;;;;;;;7.63;1.92;;;;;;;4.45;75.55;99277.91;5018894;28;20053;-71
2022/12/23 00:30:37;;;;;;;8.13;1.80;;;;;;;4.46;75.59;99279.59;5020429;28;20484;-73
2022/12/23 00:33:04;;;;;;;4.43;1.80;;;;;;;4.45;75.66;99267.56;5022384;28;20050;-75
2022/12/23 00:35:32;;;;;;;4.28;1.70;;;;;;;4.46;75.42;99271.84;5021039;28;20042;-73
2022/12/23 00:37:58;;;;;;;7.50;2.50;;;;;;;4.46;75.80;99270.09;5022437;28;20061;-73
2022/12/23 00:43:11;;;;;;;8.52;2.08;;;;;;;4.46;75.69;99262.34;5020650;28;20057;-72
2022/12/23 00:45:38;;;;;;;6.60;2.03;;;;;;;4.45;75.54;99268.41;5022305;28;20157;-72
2022/12/23 00:50:52;;;;;;;7.13;1.98;;;;;;;4.47;75.61;99264.06;5017239;28;20057;-72
2022/12/23 00:53:19;;;;;;;6.63;1.77;;;;;;;4.34;75.63;99235.88;5018565;28;20103;-72
2022/12/23 00:55:47;;;;;;;4.57;2.13;;;;;;;4.49;75.71;99258.84;5018124;28;20042;-72
2022/12/23 00:58:16;;;;;;;6.55;1.92;;;;;;;4.48;75.65;99260.59;5017782;28;20045;-72
2022/12/23 01:06:11;;;;;;;5.32;1.70;;;;;;;4.48;75.54;99262.34;5019504;28;20551;-72
2022/12/23 01:08:38;;;;;;;9.43;2.17;;;;;;;4.49;75.64;99264.03;5020694;28;20121;-74
2022/12/23 01:11:07;;;;;;;4.60;1.50;;;;;;;4.49;75.56;99256.28;5021662;28;20067;-72
2022/12/23 01:13:36;;;;;;;5.47;1.48;;;;;;;4.48;75.88;99254.56;5018340;28;20049;-72
2022/12/23 01:16:05;;;;;;;5.47;2.05;;;;;;;4.49;75.41;99253.69;5019209;28;20064;-72
2022/12/23 01:18:32;;;;;;;3.08;1.60;;;;;;;4.41;75.50;99238.34;5020614;28;20045;-72
2022/12/23 01:21:02;;;;;;;4.95;1.90;;;;;;;4.48;75.51;99254.56;5018911;28;20049;-73
2022/12/23 01:23:29;;;;;;;5.75;2.03;;;;;;;4.47;75.78;99239.97;5023960;28;20107;-73
2022/12/23 01:25:57;;;;;;;3.03;1.48;;;;;;;4.43;75.64;99239.13;5018902;28;20071;-72
2022/12/23 01:28:24;;;;;;;3.17;1.70;;;;;;;4.48;75.66;99252.84;5015817;28;20049;-72
2022/12/23 01:30:53;;;;;;;7.13;1.90;;;;;;;4.49;75.56;99243.34;5016317;28;20037;-72
2022/12/23 01:33:20;;;;;;;5.47;1.45;;;;;;;4.47;75.77;99243.38;5011798;28;20054;-72
2022/12/23 01:35:47;;;;;;;4.55;1.80;;;;;;;4.48;75.71;99239.06;5019240;28;20072;-72
2022/12/23 01:38:14;;;;;;;6.03;1.90;;;;;;;4.49;75.76;99240.75;5014150;28;20521;-72
2022/12/23 01:40:43;;;;;;;7.70;1.67;;;;;;;4.50;75.86;99234.72;5018043;28;20132;-72
2022/12/23 01:43:14;;;;;;;4.95;2.10;;;;;;;4.49;75.67;99230.41;5016296;28;20432;-72
2022/12/23 01:45:41;;;;;;;3.30;1.45;;;;;;;4.50;75.58;99229.56;5020437;28;20049;-72
2022/12/23 01:48:13;;;;;;;7.03;2.28;;;;;;;4.49;75.85;99233.00;5020605;28;20060;-72
2022/12/23 01:50:44;;;;;;;6.20;1.38;;;;;;;4.49;75.63;99227.81;5019560;28;20129;-72
2022/12/23 01:53:16;;;;;;;4.97;2.22;;;;;;;4.49;75.66;99227.81;5016789;28;20037;-72
2022/12/23 01:55:48;;;;;;;3.72;1.65;;;;;;;4.49;75.58;99222.66;5019768;28;20434;-72
2022/12/23 01:58:18;;;;;;;6.82;1.73;;;;;;;4.49;75.77;99222.66;5016027;28;20042;-72
2022/12/23 02:03:43;;;;;;;7.28;1.45;;;;;;;4.50;75.85;99219.22;5020571;28;20052;-73
2022/12/23 02:09:17;;;;;;;3.10;1.55;;;;;;;4.50;75.74;99214.03;5022500;28;20052;-72
2022/12/23 02:12:34;;;;;;;10.05;2.08;;;;;;;4.50;75.61;99211.44;5022725;28;20037;-72
2022/12/23 02:18:10;;;;;;;4.30;1.50;;;;;;;4.50;75.71;99198.53;5022854;28;20073;-72
2022/12/23 02:21:10;;;;;;;4.47;1.15;;;;;;;4.51;75.83;99207.97;5026777;28;20045;-72
2022/12/23 02:24:04;;;;;;;2.05;1.13;;;;;;;4.52;75.66;99201.91;5020422;28;20111;-72
2022/12/23 02:27:08;;;;;;;4.07;1.10;;;;;;;4.51;75.71;99201.06;5022683;28;20042;-73
2022/12/23 02:30:12;;;;;;;7.03;1.27;;;;;;;4.52;75.94;99201.91;5022264;28;20041;-72
2022/12/23 02:32:54;;;;;;;8.15;2.08;;;;;;;4.53;75.96;99206.22;5024001;28;20535;-73
2022/12/23 02:35:29;;;;;;;3.42;1.38;;;;;;;4.53;76.00;99198.47;5021713;28;20496;-73
2022/12/23 02:38:00;;;;;;;2.85;1.52;;;;;;;4.54;75.93;99199.31;5023337;28;20052;-72
2022/12/23 02:40:35;;;;;;;3.53;1.48;;;;;;;4.54;75.99;99194.97;5022287;28;20068;-72
2022/12/23 02:43:08;;;;;;;6.10;0.93;;;;;;;4.56;75.69;99198.41;5022986;28;20072;-72
2022/12/23 02:45:39;;;;;;;3.92;1.45;;;;;;;4.56;75.83;99195.81;5017140;28;20906;-72
2022/12/23 02:48:12;;;;;;;6.85;1.73;;;;;;;4.56;75.86;99189.81;5022341;28;20046;-72
2022/12/23 02:50:42;;;;;;;3.45;1.20;;;;;;;4.56;75.78;99195.81;5023842;28;20416;-74
2022/12/23 02:53:17;;;;;;;3.55;1.10;;;;;;;4.55;75.85;99188.91;5022216;28;20050;-73
2022/12/23 02:55:47;;;;;;;2.50;1.05;;;;;;;4.58;75.90;99204.41;5018126;28;20045;-72
2022/12/23 02:58:18;;;;;;;3.10;0.93;;;;;;;4.58;76.04;99199.22;5022626;28;20596;-72
2022/12/23 03:00:48;;;;;;;3.90;1.00;;;;;;;4.57;75.96;99187.16;5021453;28;20057;-72
2022/12/23 03:03:19;;;;;;;1.27;0.80;;;;;;;4.60;75.95;99194.88;5019027;28;20111;-72
2022/12/23 03:05:50;;;;;;;1.05;0.70;;;;;;;4.59;75.80;99193.16;5019440;28;20050;-72
2022/12/23 03:08:22;;;;;;;3.13;1.20;;;;;;;4.62;75.99;99192.25;5021422;28;20395;-72
2022/12/23 03:11:05;;;;;;;2.90;1.58;;;;;;;4.61;75.80;99190.53;5019683;28;20679;-72
2022/12/23 03:13:58;;;;;;;2.80;1.13;;;;;;;4.61;75.81;99183.66;5022506;28;20050;-73
2022/12/23 03:16:33;;;;;;;2.20;0.90;;;;;;;4.61;76.16;99181.06;4979717;28;20056;-73
2022/12/23 03:19:11;;;;;;;3.35;1.10;;;;;;;4.62;76.33;99180.19;5021782;28;20037;-74
2022/12/23 03:21:43;;;;;;;6.57;1.17;;;;;;;4.62;76.10;99185.34;5023321;28;20052;-74
2022/12/23 03:24:22;;;;;;;1.58;0.77;;;;;;;4.62;76.04;99180.19;5021287;28;20053;-74
2022/12/23 03:26:55;;;;;;;2.80;1.00;;;;;;;4.59;76.16;99177.66;5019493;28;20421;-74
2022/12/23 03:29:26;;;;;;;5.80;1.08;;;;;;;4.62;76.27;99172.41;5024609;28;20049;-74
2022/12/23 03:31:57;;;;;;;4.00;1.00;;;;;;;4.64;76.24;99174.97;5015908;28;20293;-73
2022/12/23 03:34:29;;;;;;;5.97;1.77;;;;;;;4.64;76.33;99175.84;5025027;28;20045;-74
2022/12/23 03:36:58;;;;;;;3.50;0.88;;;;;;;4.64;75.91;99172.38;5021447;28;20046;-74
2022/12/23 03:39:29;;;;;;;2.63;0.93;;;;;;;4.65;76.11;99172.34;5020991;28;20563;-74
2022/12/23 03:42:01;;;;;;;4.57;1.33;;;;;;;4.65;76.20;99177.53;5019459;28;20045;-73
2022/12/23 03:44:32;;;;;;;3.08;1.10;;;;;;;4.64;76.00;99165.50;5019437;28;20045;-74
2022/12/23 03:47:07;;;;;;;1.58;0.80;;;;;;;4.63;76.19;99173.25;5023672;28;20420;-73
2022/12/23 03:49:40;;;;;;;1.85;0.90;;;;;;;4.65;76.04;99176.69;5022446;28;20056;-74
2022/12/23 03:52:12;;;;;;;4.85;0.90;;;;;;;4.63;76.17;99171.53;5022326;28;20561;-75
2022/12/23 03:54:44;;;;;;;4.05;1.15;;;;;;;4.63;76.20;99168.94;5021834;28;20045;-74
2022/12/23 03:57:12;;;;;;;3.08;1.35;;;;;;;4.62;76.23;99167.25;5024138;28;20050;-75
2022/12/23 03:59:42;;;;;;;1.30;1.05;;;;;;;4.62;76.17;99175.00;5020934;28;20053;-74
2022/12/23 04:02:16;;;;;;;1.33;0.90;;;;;;;4.50;76.15;99151.97;5020376;28;20052;-74
2022/12/23 04:05:00;;;;;;;4.65;1.23;;;;;;;4.65;76.15;99167.19;5020945;28;20050;-73
2022/12/23 04:07:33;;;;;;;1.65;0.80;;;;;;;4.65;76.07;99167.19;5021842;28;20045;-74
2022/12/23 04:10:01;;;;;;;7.22;1.35;;;;;;;4.65;76.20;99167.19;5023754;28;20084;-74
2022/12/23 04:12:29;;;;;;;1.90;1.25;;;;;;;4.65;75.95;99171.50;5019368;28;20050;-74
2022/12/23 04:14:57;;;;;;;3.92;1.27;;;;;;;4.65;76.08;99174.94;5022830;28;20064;-74
2022/12/23 04:17:24;;;;;;;3.85;1.08;;;;;;;4.65;75.95;99177.53;5021493;28;20439;-74
2022/12/23 04:19:53;;;;;;;1.60;1.02;;;;;;;4.66;76.00;99178.38;5022268;28;20069;-74
2022/12/23 04:22:20;;;;;;;7.45;1.17;;;;;;;4.64;76.18;99168.06;5018031;28;20255;-74
2022/12/23 04:24:47;;;;;;;3.85;1.05;;;;;;;4.65;76.04;99168.91;5014940;28;20045;-74
2022/12/23 04:27:15;;;;;;;0.95;0.77;;;;;;;4.64;76.15;99169.78;5019806;28;20049;-74
2022/12/23 04:29:43;;;;;;;2.13;1.33;;;;;;;4.63;76.39;99162.91;5021209;28;20048;-73
2022/12/23 04:32:10;;;;;;;3.13;1.23;;;;;;;4.64;76.32;99175.84;5018493;28;20059;-74
2022/12/23 04:34:37;;;;;;;6.85;0.95;;;;;;;4.64;76.24;99191.34;5021597;28;20060;-74
2022/12/23 04:37:05;;;;;;;2.63;0.85;;;;;;;4.64;75.93;99190.47;5016443;28;20490;-74
2022/12/23 04:39:32;;;;;;;1.30;0.40;;;;;;;4.62;76.06;99193.09;5019977;28;20052;-73
2022/12/23 04:41:59;;;;;;;0.75;0.10;;;;;;;4.59;76.02;99200.94;5024060;28;20054;-74
2022/12/23 04:44:26;;;;;;;0.20;0.10;;;;;;;4.57;75.96;99207.00;5022689;28;20052;-74
2022/12/23 04:46:53;;;;;;;0.38;0.00;;;;;;;4.55;75.33;99213.94;5023087;28;20049;-74
2022/12/23 04:49:19;;;;;;;0.00;0.00;;;;;;;4.50;75.10;99212.31;5022375;28;20052;-74
2022/12/23 04:51:46;;;;;;;0.00;0.00;;;;;;;4.46;75.30;99214.97;5022013;28;20421;-74
2022/12/23 04:54:15;;;;;;;0.00;0.00;;;;;;;4.39;75.18;99222.00;5020922;28;20045;-74
2022/12/23 04:56:42;;;;;;;0.00;0.00;;;;;;;4.33;74.72;99229.84;5021671;28;20048;-74
2022/12/23 04:59:10;;;;;;;0.00;0.00;;;;;;;4.27;74.69;99228.22;5020967;28;20042;-74
2022/12/23 05:01:37;;;;;;;0.00;0.00;;;;;;;4.23;74.57;99231.72;5019803;28;20122;-74
2022/12/23 05:04:04;;;;;;;0.00;0.00;;;;;;;4.20;74.61;99239.53;5019056;28;20621;-74
2022/12/23 05:06:30;;;;;;;0.00;0.00;;;;;;;4.15;74.09;99243.94;5022818;28;20501;-74
2022/12/23 05:08:57;;;;;;;0.00;0.00;;;;;;;4.07;74.10;99253.56;5021260;28;20041;-73
2022/12/23 05:11:26;;;;;;;0.00;0.00;;;;;;;4.03;74.16;99254.47;5020065;28;20045;-74
2022/12/23 05:13:53;;;;;;;0.00;0.00;;;;;;;3.99;73.99;99263.19;5018070;28;20050;-74
2022/12/23 05:16:20;;;;;;;0.00;0.00;;;;;;;3.92;73.97;99254.66;5022624;28;20069;-74
2022/12/23 05:18:46;;;;;;;0.90;0.00;;;;;;;3.88;73.82;99260.75;5019033;28;20046;-74
2022/12/23 05:21:13;;;;;;;0.00;0.00;;;;;;;3.82;73.85;99274.63;5014310;28;20057;-74
2022/12/23 05:23:40;;;;;;;0.00;0.00;;;;;;;3.76;73.55;99276.44;5022157;28;20053;-74
2022/12/23 05:26:07;;;;;;;0.00;0.00;;;;;;;3.70;73.70;99272.22;5018192;28;20052;-74
2022/12/23 05:28:36;;;;;;;0.00;0.00;;;;;;;3.63;73.63;99275.75;5021742;28;20489;-74
2022/12/23 05:31:05;;;;;;;0.00;0.00;;;;;;;3.59;73.17;99284.44;5020020;28;20052;-74
2022/12/23 05:33:33;;;;;;;1.02;0.90;;;;;;;3.54;73.55;99283.63;5020369;28;20046;-74
2022/12/23 05:36:00;;;;;;;0.00;0.00;;;;;;;3.46;73.52;99288.06;5023601;28;20085;-74
2022/12/23 05:38:28;;;;;;;0.05;0.00;;;;;;;3.45;73.39;99301.84;5017226;28;20052;-74
2022/12/23 05:40:55;;;;;;;0.00;0.00;;;;;;;3.40;73.58;99304.47;5020043;28;20133;-74
2022/12/23 05:43:22;;;;;;;0.00;0.00;;;;;;;3.33;73.32;99303.72;5020073;28;20051;-74
2022/12/23 05:45:51;;;;;;;0.00;0.00;;;;;;;3.31;73.27;99313.19;5019821;28;20064;-74
2022/12/23 05:48:18;;;;;;;0.00;0.00;;;;;;;3.26;73.54;99311.53;5020839;28;20413;-74
2022/12/23 05:50:45;;;;;;;0.00;0.00;;;;;;;3.23;72.94;99321.91;5020384;28;20075;-73
2022/12/23 05:53:12;;;;;;;0.00;0.00;;;;;;;3.14;72.92;99318.53;5018753;28;20383;-74
2022/12/23 05:55:39;;;;;;;0.00;0.00;;;;;;;3.12;73.09;99322.00;5014937;28;20053;-74
2022/12/23 05:58:05;;;;;;;0.00;0.00;;;;;;;3.06;73.47;99319.50;5023577;28;20084;-74
2022/12/23 06:00:32;;;;;;;2.13;0.00;;;;;;;3.05;73.06;99323.81;5018167;28;20056;-74
2022/12/23 06:03:01;;;;;;;0.00;0.00;;;;;;;3.01;73.56;99322.13;5017621;28;20050;-74
2022/12/23 06:05:28;;;;;;;0.00;0.00;;;;;;;2.99;73.39;99330.75;5014587;28;20068;-75
2022/12/23 06:07:54;;;;;;;0.43;0.00;;;;;;;2.96;72.91;99338.53;5020678;28;20127;-74
2022/12/23 06:10:21;;;;;;;0.00;0.00;;;;;;;2.91;73.08;99347.19;5019552;28;20052;-74
2022/12/23 06:12:48;;;;;;;0.00;0.00;;;;;;;2.89;73.52;99351.50;5018545;28;20048;-74
2022/12/23 06:15:15;;;;;;;0.00;0.00;;;;;;;2.85;73.18;99354.13;5019295;28;20065;-74
2022/12/23 06:17:42;;;;;;;0.00;0.00;;;;;;;2.82;73.30;99359.31;5019542;28;20132;-74
2022/12/23 06:20:11;;;;;;;0.08;0.00;;;;;;;2.80;73.31;99369.63;5020793;28;20041;-75
2022/12/23 06:22:38;;;;;;;0.00;0.00;;;;;;;2.78;72.72;99366.22;5023695;28;20050;-74
2022/12/23 06:25:05;;;;;;;0.00;0.00;;;;;;;2.75;73.00;99370.56;5021156;28;20045;-74
2022/12/23 06:27:32;;;;;;;0.00;0.00;;;;;;;2.69;73.34;99364.56;5018065;28;20129;-73
2022/12/23 06:29:59;;;;;;;0.00;0.00;;;;;;;2.70;73.39;99373.16;5016804;28;20042;-74
2022/12/23 06:32:27;;;;;;;0.00;0.00;;;;;;;2.65;73.33;99375.81;5021391;28;20064;-74
2022/12/23 06:34:53;;;;;;;0.00;0.00;;;;;;;2.62;73.01;99391.28;5021532;28;20056;-75
2022/12/23 06:37:22;;;;;;;0.00;0.00;;;;;;;2.60;73.31;99387.03;5012953;28;20053;-74
2022/12/23 06:39:49;;;;;;;0.00;0.00;;;;;;;2.57;73.29;99394.78;5016053;28;20048;-74
2022/12/23 06:42:15;;;;;;;0.00;0.00;;;;;;;2.56;73.51;99385.31;5018087;28;20057;-74
2022/12/23 06:44:42;;;;;;;0.00;0.00;;;;;;;2.55;73.39;99399.09;5019662;28;20048;-75
2022/12/23 06:47:09;;;;;;;0.00;0.00;;;;;;;2.53;73.16;99400.81;5022118;28;20425;-74
2022/12/23 06:49:36;;;;;;;0.15;0.00;;;;;;;2.48;72.90;99414.59;5023414;28;20042;-74
2022/12/23 06:52:04;;;;;;;0.00;0.00;;;;;;;2.46;73.55;99413.75;5024318;28;20049;-74
2022/12/23 06:54:32;;;;;;;0.00;0.00;;;;;;;2.43;73.34;99426.66;5024830;28;20565;-74
2022/12/23 06:56:59;;;;;;;0.00;0.00;;;;;;;2.43;73.05;99420.66;5020439;28;20141;-74
2022/12/23 06:59:27;;;;;;;0.00;0.00;;;;;;;2.42;72.95;99429.22;5022243;28;20120;-75
2022/12/23 07:01:54;;;;;;;0.00;0.00;;;;;;;2.39;73.72;99430.13;5023331;28;20073;-74
2022/12/23 07:04:21;;;;;;;0.00;0.00;;;;;;;2.37;73.27;99437.00;5022331;28;20068;-74
2022/12/23 07:06:48;;;;;;;0.00;0.00;;;;;;;2.35;73.13;99443.91;5021698;28;20056;-74
2022/12/23 07:09:15;;;;;;;0.00;0.00;;;;;;;2.33;73.69;99447.34;5020938;28;20079;-74
2022/12/23 07:11:43;;;;;;;0.00;0.00;;;;;;;2.31;72.91;99449.94;5019203;28;20051;-72
2022/12/23 07:14:10;;;;;;;0.00;0.00;;;;;;;2.30;73.61;99458.53;5021674;28;20498;-74
2022/12/23 07:16:37;;;;;;;0.00;0.00;;;;;;;2.30;73.25;99466.25;5022037;28;20058;-74
2022/12/23 07:19:04;;;;;;;0.00;0.00;;;;;;;2.30;73.82;99475.72;5021365;28;20168;-74
2022/12/23 07:21:31;;;;;;;0.08;0.00;;;;;;;2.25;72.81;99471.44;5021736;28;20129;-74
2022/12/23 07:23:58;;;;;;;0.00;0.00;;;;;;;2.24;73.14;99481.75;5023761;28;20051;-74
2022/12/23 07:26:25;;;;;;;0.00;0.00;;;;;;;2.22;73.35;99489.50;5021615;28;20516;-74
2022/12/23 07:28:54;;;;;;;0.00;0.00;;;;;;;2.22;73.04;99493.78;5021672;28;20056;-74
2022/12/23 07:31:20;;;;;;;0.00;0.00;;;;;;;2.18;73.48;99494.66;5023188;28;20049;-74
2022/12/23 07:33:47;;;;;;;1.67;0.00;;;;;;;2.16;73.07;99496.38;5023935;28;20041;-74
2022/12/23 07:36:14;;;;;;;0.00;0.00;;;;;;;2.16;73.37;99507.56;5017934;28;20049;-74
2022/12/23 07:38:41;;;;;;;0.00;0.00;;;;;;;2.13;73.69;99504.97;5023187;28;20050;-74
2022/12/23 07:41:08;;;;;;;0.00;0.00;;;;;;;2.12;73.36;99523.03;5017531;28;20081;-74
2022/12/23 07:43:35;;;;;;;0.00;0.00;;;;;;;2.10;73.08;99525.59;5023181;28;20046;-74
2022/12/23 07:46:07;;;;;;;0.00;0.00;;;;;;;2.10;73.14;99520.47;5016629;28;20290;-74
2022/12/23 07:48:34;;;;;;;0.00;0.00;;;;;;;2.09;73.34;99531.63;5022090;28;20046;-75
2022/12/23 07:51:01;;;;;;;0.00;0.00;;;;;;;2.08;73.55;99541.94;5020400;28;20042;-74
2022/12/23 07:53:28;;;;;;;0.10;0.00;;;;;;;2.05;73.42;99547.09;5026166;28;20125;-74
2022/12/23 07:55:56;;;;;;;0.00;0.00;;;;;;;2.03;73.40;99555.69;5022790;28;20072;-74
2022/12/23 07:58:22;;;;;;;0.00;0.00;;;;;;;2.00;73.45;99554.84;5017227;28;20049;-74
2022/12/23 08:00:49;;;;;;;0.38;0.38;;;;;;;1.99;73.14;99560.84;5023308;28;20045;-73
2022/12/23 08:03:18;;;;;;;0.00;0.00;;;;;;;1.98;73.42;99562.56;5020092;28;20054;-74
2022/12/23 08:05:45;;;;;;;0.00;0.00;;;;;;;1.97;73.21;99560.88;5021691;28;20658;-74
2022/12/23 08:08:12;;;;;;;0.00;0.00;;;;;;;1.96;73.02;99572.03;5021263;28;20042;-74
2022/12/23 08:10:39;;;;;;;0.00;0.00;;;;;;;1.95;73.22;99566.88;5017246;28;20041;-74
2022/12/23 08:13:05;;;;;;;0.52;0.00;;;;;;;1.88;72.96;99571.22;5019866;28;20049;-74
2022/12/23 08:15:32;;;;;;;0.00;0.00;;;;;;;1.91;73.57;99580.66;5019105;28;20140;-73
2022/12/23 08:17:59;;;;;;;0.10;0.00;;;;;;;1.88;73.18;99573.78;5021790;28;20052;-74
2022/12/23 08:20:27;;;;;;;0.00;0.00;;;;;;;1.87;73.02;99587.50;5022329;28;20413;-73
2022/12/23 08:22:55;;;;;;;0.10;0.00;;;;;;;1.86;73.31;99588.38;5019566;28;20490;-73
2022/12/23 08:25:22;;;;;;;0.17;0.00;;;;;;;1.83;73.21;99588.38;5018744;28;20046;-74
2022/12/23 08:27:50;;;;;;;0.10;0.00;;;;;;;1.81;73.38;99597.81;5015186;28;20044;-73
2022/12/23 08:30:17;;;;;;;0.00;0.00;;;;;;;1.81;73.55;99602.97;5017738;28;20051;-73
2022/12/23 08:32:44;;;;;;;0.00;0.00;;;;;;;1.79;73.83;99604.69;5019786;28;20049;-74
2022/12/23 08:35:11;;;;;;;0.00;0.00;;;;;;;1.78;73.96;99600.41;5022085;28;20137;-74
2022/12/23 08:37:39;;;;;;;0.35;0.00;;;;;;;1.69;72.86;99600.41;5017020;28;20052;-74
2022/12/23 08:40:08;;;;;;;0.45;0.03;;;;;;;1.76;73.59;99612.41;5021145;28;20046;-74
2022/12/23 08:42:34;;;;;;;1.40;0.10;;;;;;;1.76;73.81;99627.84;5020104;28;20045;-74
2022/12/23 08:45:01;;;;;;;0.65;0.00;;;;;;;1.74;74.16;99627.88;5021185;28;21372;-74
2022/12/23 08:47:28;;;;;;;0.00;0.00;;;;;;;1.74;73.98;99630.44;5019611;28;20042;-73
2022/12/23 08:49:55;;;;;;;0.10;0.10;;;;;;;1.73;73.80;99630.44;5024384;28;20045;-75
2022/12/23 08:52:22;;;;;;;0.70;0.00;;;;;;;1.73;73.97;99633.00;5019426;28;20578;-73
2022/12/23 08:54:50;;;;;;;0.20;0.00;;;;;;;1.73;73.62;99630.44;5022143;28;20037;-74
2022/12/23 08:57:17;;;;;;;0.00;0.00;;;;;;;1.71;74.22;99629.59;5023594;28;20061;-73
2022/12/23 08:59:45;;;;;;;0.05;0.00;;;;;;;1.70;73.60;99633.88;5019659;28;20502;-74
2022/12/23 09:02:12;;;;;;;0.88;0.00;;;;;;;1.70;73.42;99638.16;5019002;28;20078;-73
2022/12/23 09:04:39;;;;;;;0.10;0.00;;;;;;;1.70;73.77;99645.88;5018606;28;20394;-74
2022/12/23 09:07:06;;;;;;;0.20;0.00;;;;;;;1.68;73.10;99640.75;5018088;28;20552;-73
2022/12/23 09:09:33;;;;;;;0.00;0.00;;;;;;;1.67;73.78;99648.47;5022259;28;20042;-74
2022/12/23 09:12:01;;;;;;;0.15;0.00;;;;;;;1.64;73.76;99643.31;5020331;28;20046;-74
2022/12/23 09:14:28;;;;;;;0.00;0.00;;;;;;;1.66;73.46;99657.06;5020464;28;20048;-74
2022/12/23 09:16:55;;;;;;;0.10;0.00;;;;;;;1.64;73.71;99659.63;5023814;28;20049;-74
2022/12/23 09:19:22;;;;;;;0.03;0.00;;;;;;;1.65;73.39;99675.91;5021858;28;20421;-73
2022/12/23 09:21:48;;;;;;;0.00;0.00;;;;;;;1.63;74.12;99687.94;5019663;28;20690;-74
2022/12/23 09:24:15;;;;;;;0.10;0.00;;;;;;;1.62;73.82;99689.63;5021899;28;20053;-74
2022/12/23 09:26:42;;;;;;;0.10;0.10;;;;;;;1.62;73.41;99689.63;5018933;28;20055;-73
2022/12/23 09:29:10;;;;;;;0.08;0.00;;;;;;;1.54;73.18;99681.94;5024449;28;20052;-74
2022/12/23 09:31:37;;;;;;;0.00;0.00;;;;;;;1.61;73.53;99695.66;5022623;28;20420;-73
2022/12/23 09:34:04;;;;;;;0.30;0.10;;;;;;;1.60;73.84;99691.38;5020105;28;20064;-74
2022/12/23 09:36:31;;;;;;;0.10;0.00;;;;;;;1.61;73.80;99703.38;5014374;28;20140;-73
2022/12/23 09:38:58;;;;;;;0.13;0.00;;;;;;;1.61;73.91;99699.94;5020557;28;20087;-73
2022/12/23 09:42:00;;;;;;;0.10;0.05;;;;;;;1.61;73.13;99705.09;5018583;28;20059;-74
2022/12/23 09:44:43;;;;;;;0.20;0.00;;;;;;;1.61;73.84;99710.25;4957279;28;20063;-74
2022/12/23 09:47:15;;;;;;;0.10;0.00;;;;;;;1.57;73.19;99717.13;5010178;28;20052;-74
2022/12/23 09:49:48;;;;;;;0.20;0.10;;;;;;;1.58;73.43;99721.41;5022439;28;20046;-75
2022/12/23 09:52:24;;;;;;;0.08;0.00;;;;;;;1.51;73.89;99715.41;5021541;28;20053;-74
2022/12/23 09:54:54;;;;;;;0.10;0.10;;;;;;;1.57;73.47;99729.97;5019922;28;20049;-74
2022/12/23 09:57:23;;;;;;;0.03;0.00;;;;;;;1.57;73.73;99729.97;5019761;28;20042;-74
2022/12/23 10:00:02;;;;;;;0.15;0.00;;;;;;;1.57;73.59;99724.84;5020903;28;20516;-74
2022/12/23 10:02:41;;;;;;;0.30;0.10;;;;;;;1.57;73.47;99729.97;5016774;28;20038;-74
2022/12/23 10:05:20;;;;;;;0.08;0.05;;;;;;;1.56;73.80;99739.41;5019890;28;20089;-74
2022/12/23 10:07:52;;;;;;;1.48;0.10;;;;;;;1.56;73.73;99734.25;5020479;28;20065;-74
2022/12/23 10:10:28;;;;;;;0.13;0.03;;;;;;;1.55;73.81;99741.97;5018673;28;20050;-74
2022/12/23 10:12:58;;;;;;;0.00;0.00;;;;;;;1.54;73.55;99740.28;5016870;28;20618;-73
2022/12/23 10:15:31;;;;;;;0.40;0.00;;;;;;;1.55;73.13;99753.13;5022300;28;20049;-74
2022/12/23 10:18:03;;;;;;;0.00;0.00;;;;;;;1.57;73.63;99755.72;5022715;28;20137;-74
2022/12/23 10:20:39;;;;;;;0.00;0.00;;;;;;;1.58;73.77;99749.72;5022690;28;20045;-73
2022/12/23 10:23:13;;;;;;;0.10;0.03;;;;;;;1.58;73.78;99744.56;5025312;28;20434;-74
2022/12/23 10:25:49;;;;;;;0.10;0.08;;;;;;;1.54;73.32;99741.13;5026758;28;20494;-74
2022/12/23 10:28:16;;;;;;;0.75;0.00;;;;;;;1.57;72.94;99758.31;5026638;28;20057;-75
2022/12/23 10:30:50;;;;;;;0.73;0.52;;;;;;;1.58;72.98;99757.44;5020302;28;20050;-73
2022/12/23 10:33:22;;;;;;;1.65;0.00;;;;;;;1.55;73.31;99758.28;5019799;28;20053;-74
2022/12/23 10:36:01;;;;;;;0.50;0.20;;;;;;;1.54;74.06;99761.72;5023306;28;20033;-74
2022/12/23 10:38:47;;;;;;;0.70;0.30;;;;;;;1.55;73.68;99767.72;5022167;28;20056;-74
2022/12/23 10:41:28;;;;;;;0.68;0.20;;;;;;;1.53;73.40;99772.84;5020691;28;20049;-73
2022/12/23 10:44:21;;;;;;;1.08;0.20;;;;;;;1.53;73.25;99782.28;5018773;28;20692;-73
2022/12/23 10:47:01;;;;;;;0.80;0.30;;;;;;;1.51;72.80;99776.31;5018390;28;20512;-74
2022/12/23 10:49:38;;;;;;;2.05;0.20;;;;;;;1.48;73.21;99782.31;5020840;28;20046;-73
2022/12/23 10:52:12;;;;;;;0.85;0.20;;;;;;;1.47;73.19;99780.56;5024666;28;20053;-74
2022/12/23 10:54:44;;;;;;;0.55;0.20;;;;;;;1.43;73.09;99778.00;5025853;28;20042;-74
2022/12/23 10:57:14;;;;;;;1.58;0.20;;;;;;;1.44;72.59;99796.00;5022451;28;20056;-74
2022/12/23 10:59:41;;;;;;;3.53;0.38;;;;;;;1.43;72.28;99791.72;5020863;28;20037;-74
2022/12/23 11:02:46;;;;;;;1.90;0.22;;;;;;;1.41;72.32;99798.56;5025638;28;20432;-74
2022/12/23 11:05:16;;;;;;;1.25;0.43;;;;;;;1.39;72.17;99799.41;5003014;28;20072;-74
2022/12/23 11:07:45;;;;;;;2.75;0.20;;;;;;;1.34;72.44;99802.84;5022898;28;20051;-74
2022/12/23 11:10:18;;;;;;;0.98;0.20;;;;;;;1.34;72.54;99814.84;5022390;28;20046;-74
2022/12/23 11:12:47;;;;;;;1.60;0.15;;;;;;;1.31;72.72;99810.56;5021441;28;20493;-73
2022/12/23 11:15:32;;;;;;;1.10;0.20;;;;;;;1.31;72.70;99820.00;5020375;28;20053;-73
2022/12/23 11:18:03;;;;;;;2.10;0.32;;;;;;;1.27;72.55;99841.41;5023850;28;20057;-74
2022/12/23 11:20:30;;;;;;;0.80;0.30;;;;;;;1.25;71.91;99843.97;5023635;28;20060;-74
2022/12/23 11:23:00;;;;;;;0.30;0.10;;;;;;;1.24;72.08;99849.09;5016683;28;20050;-74
2022/12/23 11:25:33;;;;;;;0.50;0.40;;;;;;;1.23;72.15;99855.13;5024044;28;20073;-74
2022/12/23 11:28:04;;;;;;;1.90;0.10;;;;;;;1.23;72.15;99863.69;5020671;28;20045;-73
2022/12/23 11:30:36;;;;;;;1.38;0.20;;;;;;;1.21;72.32;99864.53;5020340;28;20584;-73
2022/12/23 11:33:04;;;;;;;0.28;0.10;;;;;;;1.20;72.15;99873.09;5019947;28;20056;-74
2022/12/23 11:35:33;;;;;;;1.60;0.20;;;;;;;1.11;71.73;99864.50;5021822;28;20042;-74
2022/12/23 11:38:02;;;;;;;1.40;0.25;;;;;;;1.14;72.03;99868.78;5021016;28;20059;-74
2022/12/23 11:40:31;;;;;;;0.50;0.10;;;;;;;1.12;72.28;99870.50;5022374;28;20044;-73
2022/12/23 11:43:01;;;;;;;4.45;0.20;;;;;;;1.12;71.99;99871.34;5022913;28;20069;-74
2022/12/23 11:45:30;;;;;;;3.05;0.15;;;;;;;1.10;72.25;99865.31;5022242;28;20125;-74
2022/12/23 11:47:57;;;;;;;3.38;0.25;;;;;;;1.11;72.32;99868.75;5021924;28;20049;-74
2022/12/23 11:50:35;;;;;;;3.63;0.50;;;;;;;1.10;71.50;99867.91;5019832;28;20409;-74
2022/12/23 11:53:12;;;;;;;0.57;0.25;;;;;;;1.09;72.57;99880.75;5023068;28;20429;-74
2022/12/23 11:55:46;;;;;;;0.63;0.17;;;;;;;1.08;71.89;99879.91;5017035;28;20057;-72
2022/12/23 11:58:19;;;;;;;0.83;0.30;;;;;;;1.08;72.31;99879.03;5018941;28;20064;-74
2022/12/23 12:00:53;;;;;;;3.13;0.85;;;;;;;1.06;71.87;99885.91;5020181;28;20053;-73
2022/12/23 12:03:24;;;;;;;1.17;0.43;;;;;;;1.05;71.50;99884.16;5023551;28;20057;-74
2022/12/23 12:05:57;;;;;;;0.93;0.20;;;;;;;1.04;71.96;99890.16;5023543;28;20057;-74
2022/12/23 12:08:31;;;;;;;0.85;0.15;;;;;;;1.01;71.76;99893.56;5021999;28;20049;-74
2022/12/23 12:11:05;;;;;;;0.52;0.10;;;;;;;1.00;71.80;99898.72;5019806;28;20111;-74
2022/12/23 12:13:38;;;;;;;2.28;0.70;;;;;;;0.87;71.69;99877.19;5019256;28;20050;-74
2022/12/23 12:16:22;;;;;;;0.75;0.10;;;;;;;0.98;71.19;99913.28;5022787;28;20227;-73
2022/12/23 12:18:51;;;;;;;0.45;0.20;;;;;;;0.96;71.74;99915.81;5020447;28;20056;-74
2022/12/23 12:21:24;;;;;;;1.98;0.20;;;;;;;0.96;71.99;99920.09;5022286;28;20046;-73